createdAt,value
2022-12-24T00:00:14.616Z,13.73
2022-12-24T00:02:41.886Z,14.65
2022-12-24T00:05:09.392Z,17.95
2022-12-24T00:07:36.873Z,15.07
2022-12-24T00:10:06.154Z,18.90
2022-12-24T00:12:33.305Z,16.20
2022-12-24T00:15:00.500Z,15.95
2022-12-24T00:17:27.583Z,18.13
2022-12-24T00:19:54.586Z,20.80
2022-12-24T00:22:21.798Z,17.25
2022-12-24T00:24:48.848Z,16.80
2022-12-24T00:27:15.945Z,18.77
2022-12-24T00:29:42.975Z,19.50
2022-12-24T00:32:10.441Z,19.02
2022-12-24T00:34:37.935Z,19.15
2022-12-24T00:37:06.551Z,16.92
2022-12-24T00:39:33.825Z,19.48
2022-12-24T00:42:00.956Z,16.92
2022-12-24T00:44:28.077Z,20.50
2022-12-24T00:46:55.188Z,19.40
2022-12-24T00:49:22.311Z,16.17
2022-12-24T00:51:49.327Z,24.20
2022-12-24T00:54:16.435Z,27.65
2022-12-24T00:56:43.611Z,21.67
2022-12-24T00:59:10.632Z,16.80
2022-12-24T01:01:37.785Z,20.48
2022-12-24T01:04:23.628Z,18.52
2022-12-24T01:06:50.645Z,22.95
2022-12-24T01:09:17.618Z,20.98
2022-12-24T01:11:44.730Z,22.83
2022-12-24T01:14:11.760Z,23.02
2022-12-24T01:16:38.910Z,23.48
2022-12-24T01:19:05.950Z,20.73
2022-12-24T01:21:32.960Z,21.85
2022-12-24T01:23:59.965Z,22.52
2022-12-24T01:26:27.005Z,20.88
2022-12-24T01:29:12.665Z,26.23
2022-12-24T01:31:39.813Z,26.85
2022-12-24T01:34:06.972Z,19.75
2022-12-24T01:36:34.173Z,19.15
2022-12-24T01:39:01.187Z,23.20
2022-12-24T01:41:48.575Z,21.10
2022-12-24T01:44:35.576Z,25.25
2022-12-24T01:47:14.042Z,20.63
2022-12-24T01:49:52.624Z,23.83
2022-12-24T01:52:30.606Z,23.77
2022-12-24T01:55:10.585Z,23.20
2022-12-24T01:57:43.117Z,21.95
2022-12-24T02:00:12.862Z,20.58
2022-12-24T02:02:43.495Z,21.50
2022-12-24T02:05:18.736Z,21.60
2022-12-24T02:07:47.678Z,17.38
2022-12-24T02:10:16.510Z,21.52
2022-12-24T02:12:45.471Z,21.27
2022-12-24T02:15:16.790Z,20.52
2022-12-24T02:18:11.020Z,17.23
2022-12-24T02:21:22.326Z,17.45
2022-12-24T02:24:23.541Z,21.92
2022-12-24T02:29:47.737Z,21.90
2022-12-24T02:32:27.010Z,22.38
2022-12-24T02:35:02.817Z,23.67
2022-12-24T02:37:45.832Z,18.40
2022-12-24T02:40:25.835Z,20.30
2022-12-24T02:42:58.635Z,18.02
2022-12-24T02:45:34.600Z,18.85
2022-12-24T02:48:02.337Z,18.52
2022-12-24T02:50:29.450Z,16.60
2022-12-24T02:52:56.489Z,23.58
2022-12-24T02:55:41.580Z,19.48
2022-12-24T02:58:08.596Z,20.15
2022-12-24T03:01:18.662Z,21.20
2022-12-24T03:04:16.104Z,18.90
2022-12-24T03:06:45.921Z,21.77
2022-12-24T03:09:28.165Z,21.42
2022-12-24T03:12:00.018Z,19.02
2022-12-24T03:14:29.970Z,19.20
2022-12-24T03:16:59.002Z,20.00
2022-12-24T03:19:27.500Z,20.00
2022-12-24T03:21:58.365Z,23.35
2022-12-24T03:24:25.510Z,17.85
2022-12-24T03:26:53.078Z,23.58
2022-12-24T03:29:20.569Z,21.83
2022-12-24T03:31:51.009Z,23.77
2022-12-24T03:34:19.608Z,21.85
2022-12-24T03:36:48.373Z,20.35
2022-12-24T03:39:15.516Z,20.63
2022-12-24T03:41:42.542Z,21.88
2022-12-24T03:44:09.633Z,21.15
2022-12-24T03:46:36.684Z,25.05
2022-12-24T03:49:03.792Z,19.92
2022-12-24T03:51:30.862Z,21.50
2022-12-24T03:53:58.292Z,19.50
2022-12-24T03:56:26.583Z,19.48
2022-12-24T03:58:54.494Z,24.55
2022-12-24T04:01:21.691Z,23.10
2022-12-24T04:03:48.743Z,23.35
2022-12-24T04:06:18.056Z,24.65
2022-12-24T04:08:45.200Z,24.27
2022-12-24T04:11:15.205Z,21.35
2022-12-24T04:13:42.356Z,23.60
2022-12-24T04:16:12.259Z,23.55
2022-12-24T04:18:40.563Z,28.70
2022-12-24T04:21:09.153Z,25.52
2022-12-24T04:23:38.320Z,24.40
2022-12-24T04:26:07.758Z,24.35
2022-12-24T04:28:35.786Z,24.23
2022-12-24T04:31:06.039Z,22.23
2022-12-24T04:33:33.349Z,25.02
2022-12-24T04:36:02.675Z,29.00
2022-12-24T04:38:30.808Z,28.17
2022-12-24T04:41:03.583Z,28.48
2022-12-24T04:43:30.659Z,25.50
2022-12-24T04:46:04.942Z,25.60
2022-12-24T04:48:32.175Z,24.05
2022-12-24T04:51:02.120Z,32.55
2022-12-24T04:53:29.375Z,28.88
2022-12-24T04:55:56.773Z,26.77
2022-12-24T04:58:24.256Z,26.42
2022-12-24T05:00:51.519Z,27.98
2022-12-24T05:03:18.592Z,26.52
2022-12-24T05:05:45.636Z,30.40
2022-12-24T05:08:13.206Z,25.95
2022-12-24T05:10:40.312Z,32.45
2022-12-24T05:13:07.328Z,28.40
2022-12-24T05:15:34.358Z,31.58
2022-12-24T05:18:01.407Z,32.92
2022-12-24T05:20:28.452Z,29.60
2022-12-24T05:23:14.052Z,25.73
2022-12-24T05:25:59.499Z,31.83
2022-12-24T05:28:26.604Z,30.27
2022-12-24T05:30:53.728Z,28.63
2022-12-24T05:33:20.934Z,28.15
2022-12-24T05:35:47.952Z,28.77
2022-12-24T05:38:15.013Z,30.85
2022-12-24T05:40:42.013Z,27.88
2022-12-24T05:43:09.164Z,28.63
2022-12-24T05:45:36.161Z,28.15
2022-12-24T05:48:03.203Z,28.88
2022-12-24T05:50:30.651Z,33.72
2022-12-24T05:53:05.406Z,31.52
2022-12-24T05:55:32.571Z,37.97
2022-12-24T05:57:59.608Z,30.70
2022-12-24T06:00:26.835Z,33.17
2022-12-24T06:02:53.944Z,34.58
2022-12-24T06:05:20.963Z,34.95
2022-12-24T06:07:48.026Z,34.33
2022-12-24T06:10:15.140Z,25.85
2022-12-24T06:12:42.173Z,31.55
2022-12-24T06:15:10.240Z,30.48
2022-12-24T06:17:37.377Z,34.58
2022-12-24T06:20:05.238Z,41.25
2022-12-24T06:22:32.255Z,35.58
2022-12-24T06:24:59.328Z,32.83
2022-12-24T06:27:26.451Z,38.00
2022-12-24T06:29:53.490Z,32.20
2022-12-24T06:32:20.656Z,37.17
2022-12-24T06:34:47.656Z,34.90
2022-12-24T06:37:18.531Z,34.50
2022-12-24T06:42:13.980Z,34.88
2022-12-24T06:44:41.180Z,37.28
2022-12-24T06:47:08.182Z,35.28
2022-12-24T06:49:35.172Z,35.13
2022-12-24T06:52:02.218Z,36.95
2022-12-24T06:54:29.322Z,35.30
2022-12-24T06:56:57.983Z,37.00
2022-12-24T06:59:25.168Z,35.00
2022-12-24T07:01:52.200Z,40.47
2022-12-24T07:04:20.690Z,37.90
2022-12-24T07:06:48.109Z,35.50
2022-12-24T07:09:15.142Z,34.53
2022-12-24T07:11:42.150Z,31.75
2022-12-24T07:14:09.189Z,35.08
2022-12-24T07:16:36.476Z,30.38
2022-12-24T07:19:03.725Z,34.88
2022-12-24T07:21:30.854Z,34.47
2022-12-24T07:23:57.871Z,32.97
2022-12-24T07:26:25.074Z,32.08
2022-12-24T07:28:52.171Z,32.53
2022-12-24T07:31:19.415Z,31.23
2022-12-24T07:33:46.439Z,36.08
2022-12-24T07:36:20.646Z,32.78
2022-12-24T07:38:48.410Z,34.75
2022-12-24T07:41:15.570Z,31.13
2022-12-24T07:43:42.838Z,34.53
2022-12-24T07:46:10.023Z,28.70
2022-12-24T07:48:37.202Z,33.55
2022-12-24T07:51:04.982Z,39.35
2022-12-24T07:53:32.251Z,29.60
2022-12-24T07:55:59.737Z,29.15
2022-12-24T07:58:27.100Z,31.05
2022-12-24T08:01:00.755Z,33.60
2022-12-24T08:03:28.030Z,26.38
2022-12-24T08:05:55.499Z,28.10
2022-12-24T08:08:22.561Z,31.23
2022-12-24T08:10:49.710Z,26.85
2022-12-24T08:13:17.016Z,29.83
2022-12-24T08:15:45.277Z,27.20
2022-12-24T08:18:12.646Z,29.77
2022-12-24T08:20:40.865Z,29.05
2022-12-24T08:23:09.188Z,26.42
2022-12-24T08:25:36.704Z,30.52
2022-12-24T08:28:04.618Z,34.60
2022-12-24T08:30:31.674Z,25.02
2022-12-24T08:33:04.268Z,27.85
2022-12-24T08:35:31.547Z,25.45
2022-12-24T08:37:58.913Z,28.77
2022-12-24T08:40:26.014Z,27.80
2022-12-24T08:42:53.081Z,23.27
2022-12-24T08:45:20.849Z,22.45
2022-12-24T08:47:48.046Z,26.75
2022-12-24T08:50:15.315Z,20.45
2022-12-24T08:52:42.400Z,21.80
2022-12-24T08:55:09.738Z,22.20
2022-12-24T08:57:37.688Z,24.85
2022-12-24T09:00:06.476Z,27.15
2022-12-24T09:02:33.654Z,26.65
2022-12-24T09:05:00.902Z,21.92
2022-12-24T09:07:27.959Z,29.20
2022-12-24T09:09:54.962Z,24.48
2022-12-24T09:12:21.982Z,18.70
2022-12-24T09:14:51.743Z,24.50
2022-12-24T09:17:18.898Z,24.73
2022-12-24T09:19:46.583Z,23.33
2022-12-24T09:22:13.926Z,21.77
2022-12-24T09:24:41.029Z,22.52
2022-12-24T09:27:08.063Z,23.17
2022-12-24T09:29:35.617Z,22.98
2022-12-24T09:32:02.768Z,24.23
2022-12-24T09:34:30.583Z,26.13
2022-12-24T09:36:57.932Z,23.20
2022-12-24T09:39:25.060Z,26.63
2022-12-24T09:42:15.173Z,22.77
2022-12-24T09:45:01.001Z,21.98
2022-12-24T09:47:43.202Z,21.67
2022-12-24T09:50:42.215Z,22.60
2022-12-24T09:53:36.821Z,23.35
2022-12-24T09:56:11.689Z,23.55
2022-12-24T09:58:43.693Z,21.92
2022-12-24T10:01:13.772Z,23.38
2022-12-24T10:03:41.501Z,21.25
2022-12-24T10:06:16.734Z,24.92
2022-12-24T10:08:58.943Z,26.17
2022-12-24T10:11:44.912Z,23.65
2022-12-24T10:14:49.171Z,24.48
2022-12-24T10:17:53.755Z,24.23
2022-12-24T10:20:27.180Z,21.25
2022-12-24T10:22:54.116Z,28.52
2022-12-24T10:25:43.379Z,25.80
2022-12-24T10:28:19.371Z,21.27
2022-12-24T10:30:50.540Z,28.98
2022-12-24T10:33:31.481Z,23.88
2022-12-24T10:35:58.964Z,22.50
2022-12-24T10:38:26.936Z,23.25
2022-12-24T10:40:57.038Z,23.77
2022-12-24T10:43:26.801Z,22.83
2022-12-24T10:46:03.384Z,24.70
2022-12-24T10:49:04.671Z,23.48
2022-12-24T10:51:43.833Z,19.55
2022-12-24T10:54:19.466Z,18.77
2022-12-24T10:56:52.723Z,24.63
2022-12-24T10:59:35.865Z,23.27
2022-12-24T11:02:03.105Z,24.95
2022-12-24T11:04:32.652Z,25.40
2022-12-24T11:06:59.685Z,27.30
2022-12-24T11:09:41.299Z,28.25
2022-12-24T11:12:19.216Z,25.02
2022-12-24T11:14:46.351Z,25.65
2022-12-24T11:17:23.585Z,23.67
2022-12-24T11:19:51.254Z,22.27
2022-12-24T11:22:29.364Z,25.33
2022-12-24T11:25:02.348Z,21.27
2022-12-24T11:27:44.378Z,31.15
2022-12-24T11:30:25.490Z,23.67
2022-12-24T11:33:16.252Z,22.90
2022-12-24T11:35:49.626Z,23.65
2022-12-24T11:38:22.742Z,22.52
2022-12-24T11:41:01.441Z,17.13
2022-12-24T11:43:44.661Z,24.52
2022-12-24T11:46:21.168Z,26.05
2022-12-24T11:49:08.043Z,24.75
2022-12-24T11:51:35.932Z,23.02
2022-12-24T11:54:24.308Z,22.52
2022-12-24T11:56:55.129Z,19.33
2022-12-24T11:59:43.613Z,16.23
2022-12-24T12:02:35.511Z,16.77
2022-12-24T12:05:26.527Z,17.17
2022-12-24T12:07:59.634Z,16.75
2022-12-24T12:10:32.608Z,16.52
2022-12-24T12:13:15.427Z,15.52
2022-12-24T12:15:52.123Z,14.23
2022-12-24T12:18:24.851Z,17.50
2022-12-24T12:21:00.951Z,17.10
2022-12-24T12:23:36.141Z,13.77
2022-12-24T12:26:03.101Z,17.40
2022-12-24T12:29:11.647Z,15.20
2022-12-24T12:31:53.338Z,20.42
2022-12-24T12:34:39.906Z,15.93
2022-12-24T12:37:18.332Z,14.98
2022-12-24T12:39:45.374Z,12.98
2022-12-24T12:42:20.166Z,13.88
2022-12-24T12:45:15.163Z,14.48
2022-12-24T12:48:17.626Z,13.18
2022-12-24T12:51:01.090Z,17.98
2022-12-24T12:53:35.333Z,14.15
2022-12-24T12:56:29.409Z,12.85
2022-12-24T12:59:19.210Z,12.93
2022-12-24T13:01:49.404Z,11.68
2022-12-24T13:04:44.567Z,11.80
2022-12-24T13:07:35.828Z,7.47
2022-12-24T13:10:16.886Z,10.57
2022-12-24T13:13:02.259Z,13.18
2022-12-24T13:15:47.438Z,12.98
2022-12-24T13:18:25.514Z,8.55
2022-12-24T13:20:53.246Z,9.40
2022-12-24T13:23:23.833Z,8.25
2022-12-24T13:25:57.132Z,10.50
2022-12-24T13:28:24.249Z,9.43
2022-12-24T13:31:25.893Z,11.60
2022-12-24T13:33:58.207Z,8.48
2022-12-24T13:36:26.124Z,10.43
2022-12-24T13:38:53.143Z,13.43
2022-12-24T13:41:38.744Z,8.20
2022-12-24T13:44:06.782Z,9.57
2022-12-24T13:47:04.989Z,10.90
2022-12-24T13:49:34.868Z,10.27
2022-12-24T13:52:11.165Z,10.15
2022-12-24T13:54:59.116Z,10.57
2022-12-24T13:57:35.015Z,11.40
2022-12-24T14:00:24.329Z,7.90
2022-12-24T14:03:13.025Z,9.10
2022-12-24T14:05:43.177Z,8.90
2022-12-24T14:08:27.463Z,9.27
2022-12-24T14:11:09.274Z,11.80
2022-12-24T14:13:42.015Z,15.23
2022-12-24T14:16:13.685Z,10.93
2022-12-24T14:18:43.857Z,5.82
2022-12-24T14:21:26.917Z,8.32
2022-12-24T14:23:57.667Z,10.35
2022-12-24T14:26:30.147Z,9.48
2022-12-24T14:29:02.281Z,7.50
2022-12-24T14:31:29.430Z,11.20
2022-12-24T14:34:08.140Z,6.10
2022-12-24T14:36:36.432Z,8.88
2022-12-24T14:39:07.177Z,8.70
2022-12-24T14:42:01.984Z,5.47
2022-12-24T14:44:52.825Z,9.48
2022-12-24T14:47:40.180Z,9.95
2022-12-24T14:50:45.237Z,6.82
2022-12-24T14:53:38.478Z,8.77
2022-12-24T14:56:15.663Z,5.47
2022-12-24T14:58:44.288Z,11.15
2022-12-24T15:01:20.563Z,9.80
2022-12-24T15:04:11.253Z,16.20
2022-12-24T15:06:41.694Z,5.45
2022-12-24T15:09:20.974Z,7.47
2022-12-24T15:11:50.786Z,8.05
2022-12-24T15:14:19.482Z,11.60
2022-12-24T15:17:04.183Z,10.57
2022-12-24T15:19:36.234Z,12.60
2022-12-24T15:22:07.996Z,13.75
2022-12-24T15:24:43.821Z,12.02
2022-12-24T15:27:38.533Z,8.25
2022-12-24T15:30:15.605Z,8.02
2022-12-24T15:32:42.917Z,9.63
2022-12-24T15:35:43.400Z,8.23
2022-12-24T15:38:25.301Z,2.03
2022-12-24T15:40:53.330Z,9.60
2022-12-24T15:43:20.989Z,9.65
2022-12-24T15:45:48.928Z,8.57
2022-12-24T15:48:24.609Z,8.73
2022-12-24T15:51:04.909Z,10.05
2022-12-24T15:53:43.773Z,8.73
2022-12-24T15:56:32.443Z,9.93
2022-12-24T15:59:38.337Z,7.60
2022-12-24T16:02:33.301Z,8.95
2022-12-24T16:05:39.371Z,11.32
2022-12-24T16:08:15.169Z,4.60
2022-12-24T16:11:12.602Z,12.43
2022-12-24T16:13:51.250Z,9.15
2022-12-24T16:16:20.976Z,9.95
2022-12-24T16:18:59.048Z,10.07
2022-12-24T16:21:34.358Z,10.90
2022-12-24T16:24:21.682Z,10.77
2022-12-24T16:26:49.274Z,11.75
2022-12-24T16:29:17.346Z,11.10
2022-12-24T16:31:55.730Z,7.82
2022-12-24T16:34:26.205Z,11.30
2022-12-24T16:36:53.737Z,8.25
2022-12-24T16:39:25.301Z,10.57
2022-12-24T16:42:16.389Z,6.68
2022-12-24T16:47:14.200Z,8.68
2022-12-24T16:49:41.329Z,12.77
2022-12-24T16:52:16.645Z,9.13
2022-12-24T16:54:43.755Z,11.40
2022-12-24T16:57:11.034Z,9.55
2022-12-24T16:59:38.455Z,11.18
2022-12-24T17:02:12.581Z,8.15
2022-12-24T17:04:44.152Z,8.45
2022-12-24T17:07:12.848Z,10.63
2022-12-24T17:09:40.144Z,7.97
2022-12-24T17:12:07.251Z,6.10
2022-12-24T17:14:34.292Z,11.18
2022-12-24T17:17:01.414Z,9.68
2022-12-24T17:19:28.537Z,8.93
2022-12-24T17:21:55.565Z,8.95
2022-12-24T17:24:22.573Z,12.88
2022-12-24T17:26:49.638Z,9.48
2022-12-24T17:29:16.618Z,10.55
2022-12-24T17:31:43.774Z,10.43
2022-12-24T17:34:10.829Z,10.63
2022-12-24T17:36:37.866Z,8.43
2022-12-24T17:39:04.919Z,10.05
2022-12-24T17:41:31.989Z,10.68
2022-12-24T17:43:59.070Z,8.57
2022-12-24T17:46:26.145Z,11.57
2022-12-24T17:48:53.431Z,10.88
2022-12-24T17:51:22.695Z,5.55
2022-12-24T17:53:50.437Z,8.98
2022-12-24T17:56:17.964Z,9.10
2022-12-24T17:58:46.362Z,7.40
2022-12-24T18:01:16.737Z,8.90
2022-12-24T18:03:44.532Z,8.70
2022-12-24T18:06:12.968Z,7.53
2022-12-24T18:08:41.715Z,8.45
2022-12-24T18:11:19.060Z,8.35
2022-12-24T18:13:46.994Z,3.30
2022-12-24T18:16:23.275Z,4.07
2022-12-24T18:18:51.384Z,3.05
2022-12-24T18:21:20.645Z,6.28
2022-12-24T18:23:49.475Z,8.38
2022-12-24T18:26:18.102Z,6.75
2022-12-24T18:28:45.722Z,9.57
2022-12-24T18:31:19.118Z,2.97
2022-12-24T18:33:48.210Z,5.85
2022-12-24T18:36:16.227Z,5.40
2022-12-24T18:38:43.271Z,5.60
2022-12-24T18:41:15.623Z,5.80
2022-12-24T18:43:42.963Z,4.43
2022-12-24T18:46:25.351Z,3.53
2022-12-24T18:48:53.327Z,4.05
2022-12-24T18:51:22.711Z,4.13
2022-12-24T18:53:50.733Z,8.82
2022-12-24T18:56:21.862Z,3.83
2022-12-24T18:58:51.931Z,1.90
2022-12-24T19:01:22.202Z,5.67
2022-12-24T19:03:49.901Z,2.63
2022-12-24T19:06:18.333Z,4.72
2022-12-24T19:08:57.093Z,7.47
2022-12-24T19:11:26.899Z,5.03
2022-12-24T19:13:54.064Z,6.75
2022-12-24T19:16:22.032Z,5.95
2022-12-24T19:18:49.616Z,6.32
2022-12-24T19:21:18.518Z,5.18
2022-12-24T19:23:46.550Z,5.53
2022-12-24T19:26:16.224Z,3.72
2022-12-24T19:28:44.265Z,7.38
2022-12-24T19:31:14.007Z,5.63
2022-12-24T19:33:43.926Z,5.50
2022-12-24T19:36:22.700Z,2.47
2022-12-24T19:38:50.274Z,7.07
2022-12-24T19:41:19.983Z,5.22
2022-12-24T19:43:49.633Z,4.55
2022-12-24T19:46:19.645Z,4.05
2022-12-24T19:48:51.692Z,5.20
2022-12-24T19:51:19.738Z,5.90
2022-12-24T19:53:48.149Z,6.70
2022-12-24T19:56:20.149Z,5.70
2022-12-24T19:58:47.965Z,5.30
2022-12-24T20:01:18.303Z,6.35
2022-12-24T20:03:46.456Z,14.25
2022-12-24T20:06:15.065Z,4.65
2022-12-24T20:08:42.607Z,5.80
2022-12-24T20:11:13.327Z,6.13
2022-12-24T20:13:41.321Z,7.35
2022-12-24T20:16:17.204Z,4.93
2022-12-24T20:18:44.327Z,6.57
2022-12-24T20:21:13.315Z,7.60
2022-12-24T20:23:41.555Z,3.05
2022-12-24T20:26:11.911Z,1.35
2022-12-24T20:28:39.893Z,5.32
2022-12-24T20:31:14.551Z,5.00
2022-12-24T20:33:42.942Z,6.95
2022-12-24T20:36:11.344Z,4.28
2022-12-24T20:38:39.352Z,8.95
2022-12-24T20:41:07.304Z,9.98
2022-12-24T20:43:38.355Z,1.90
2022-12-24T20:46:07.542Z,5.03
2022-12-24T20:48:35.407Z,5.68
2022-12-24T20:51:11.598Z,6.10
2022-12-24T20:53:39.317Z,7.70
2022-12-24T20:56:06.780Z,6.85
2022-12-24T20:58:33.972Z,6.70
2022-12-24T21:01:01.028Z,5.32
2022-12-24T21:03:28.087Z,4.22
2022-12-24T21:05:55.162Z,6.47
2022-12-24T21:08:22.730Z,9.10
2022-12-24T21:11:09.649Z,6.28
2022-12-24T21:13:36.649Z,6.05
2022-12-24T21:16:03.742Z,7.47
2022-12-24T21:18:30.777Z,9.70
2022-12-24T21:20:58.697Z,9.75
2022-12-24T21:23:25.728Z,7.57
2022-12-24T21:26:04.604Z,8.05
2022-12-24T21:28:32.491Z,11.02
2022-12-24T21:31:00.085Z,12.55
2022-12-24T21:33:27.234Z,10.57
2022-12-24T21:35:58.992Z,10.82
2022-12-24T21:38:26.399Z,10.00
2022-12-24T21:41:04.932Z,12.50
2022-12-24T21:43:33.599Z,10.75
2022-12-24T21:46:00.817Z,17.92
2022-12-24T21:48:46.410Z,7.60
2022-12-24T21:51:13.417Z,5.90
2022-12-24T21:53:59.097Z,12.65
2022-12-24T21:56:26.169Z,8.85
2022-12-24T21:58:53.199Z,8.75
2022-12-24T22:01:20.380Z,7.65
2022-12-24T22:03:50.645Z,6.53
2022-12-24T22:06:36.567Z,6.18
2022-12-24T22:09:22.078Z,7.25
2022-12-24T22:11:54.347Z,6.70
2022-12-24T22:14:22.224Z,8.38
2022-12-24T22:16:49.322Z,8.25
2022-12-24T22:19:16.415Z,7.35
2022-12-24T22:21:43.445Z,2.55
2022-12-24T22:24:10.512Z,5.47
2022-12-24T22:26:37.587Z,6.63
2022-12-24T22:29:05.714Z,10.40
2022-12-24T22:31:32.786Z,5.55
2022-12-24T22:34:00.633Z,8.10
2022-12-24T22:36:27.914Z,9.57
2022-12-24T22:38:55.323Z,9.30
2022-12-24T22:41:22.420Z,7.47
2022-12-24T22:43:50.406Z,6.88
2022-12-24T22:46:18.025Z,9.00
2022-12-24T22:48:45.695Z,7.70
2022-12-24T22:51:18.563Z,10.70
2022-12-24T22:53:45.915Z,11.05
2022-12-24T22:56:16.466Z,8.30
2022-12-24T22:58:43.606Z,10.48
2022-12-24T23:01:11.233Z,8.65
2022-12-24T23:03:38.390Z,10.55
2022-12-24T23:06:07.226Z,8.27
2022-12-24T23:08:36.601Z,8.23
2022-12-24T23:11:09.034Z,9.02
2022-12-24T23:13:57.230Z,7.93
2022-12-24T23:16:26.189Z,6.32
2022-12-24T23:18:54.225Z,6.97
2022-12-24T23:21:21.326Z,5.35
2022-12-24T23:23:48.483Z,6.22
2022-12-24T23:26:18.528Z,1.23
2022-12-24T23:28:46.302Z,1.37
2022-12-24T23:31:15.048Z,2.10
2022-12-24T23:33:42.780Z,1.67
2022-12-24T23:36:10.236Z,1.95
2022-12-24T23:38:37.359Z,4.00
2022-12-24T23:41:06.883Z,2.33
2022-12-24T23:43:34.991Z,0.50
2022-12-24T23:46:02.345Z,2.30
2022-12-24T23:48:29.693Z,3.60
2022-12-24T23:51:24.542Z,3.50
2022-12-24T23:53:53.497Z,1.60
2022-12-24T23:56:21.835Z,3.67
2022-12-24T23:58:49.232Z,2.17
